Terminal Aerodrome Forecast
Issued by NWS

Home | Current Version | Previous Version | Text Only | Print | Product List | Glossary On
Versions: 1 2 3 4 5 6 7 8 9 10 11 12 13 14 15 16 17 18 19 20 21 22 23 24 25 26 27 28 29 30 31 32 33 34 35 36 37 38 39 40
206
FTUS44 KLZK 181124
TAFLLQ
TAF
KLLQ 181124Z 1812/1912 08004KT P6SM SCT010 BKN020
     FM182100 12010KT P6SM SCT010 BKN020
     FM190300 15012G20KT 5SM BR VCSH SCT005 BKN010 WS020/19045KT
     FM190900 21012G20KT 4SM -RA BR BKN005 WS020/21045KT=

USA.gov is the U.S. government's official web portal to all federal, state and local government web resources and services.